createdAt,value
2019-01-27T00:00:41.136Z,0.00
2019-01-27T00:01:41.052Z,0.00
2019-01-27T00:02:40.965Z,0.00
2019-01-27T00:03:40.876Z,0.00
2019-01-27T00:04:40.791Z,0.00
2019-01-27T00:05:40.716Z,0.00
2019-01-27T00:06:40.618Z,0.00
2019-01-27T00:07:40.530Z,0.00
2019-01-27T00:08:40.446Z,0.00
2019-01-27T00:09:40.368Z,0.00
2019-01-27T00:10:40.528Z,0.00
2019-01-27T00:11:40.187Z,0.00
2019-01-27T00:12:40.099Z,0.00
2019-01-27T00:13:40.012Z,0.00
2019-01-27T00:14:39.949Z,0.00
2019-01-27T00:15:39.840Z,0.00
2019-01-27T00:16:39.754Z,0.00
2019-01-27T00:17:39.671Z,0.00
2019-01-27T00:18:39.579Z,0.00
2019-01-27T00:19:39.496Z,0.00
2019-01-27T00:20:39.408Z,0.00
2019-01-27T00:21:39.323Z,0.00
2019-01-27T00:22:39.240Z,0.00
2019-01-27T00:23:39.148Z,0.00
2019-01-27T00:24:39.061Z,0.00
2019-01-27T00:25:38.976Z,0.00
2019-01-27T00:26:38.891Z,0.00
2019-01-27T00:27:38.805Z,0.00
2019-01-27T00:28:38.727Z,0.00
2019-01-27T00:29:38.631Z,0.00
2019-01-27T00:30:38.544Z,0.00
2019-01-27T00:31:38.460Z,0.00
2019-01-27T00:32:38.373Z,0.00
2019-01-27T00:33:38.286Z,0.00
2019-01-27T00:34:38.200Z,0.00
2019-01-27T00:35:38.116Z,0.00
2019-01-27T00:36:38.027Z,0.00
2019-01-27T00:37:37.943Z,0.00
2019-01-27T00:38:37.863Z,0.00
2019-01-27T00:39:37.768Z,0.00
2019-01-27T00:40:37.681Z,0.00
2019-01-27T00:41:37.599Z,0.00
2019-01-27T00:42:37.512Z,0.00
2019-01-27T00:43:37.424Z,0.00
2019-01-27T00:44:37.335Z,0.00
2019-01-27T00:45:37.254Z,0.00
2019-01-27T00:46:37.169Z,0.00
2019-01-27T00:47:37.078Z,0.00
2019-01-27T00:48:36.991Z,0.00
2019-01-27T00:49:36.913Z,0.00
2019-01-27T00:50:36.819Z,0.00
2019-01-27T00:51:36.732Z,0.00
2019-01-27T00:52:36.650Z,0.00
2019-01-27T00:53:36.570Z,0.00
2019-01-27T00:54:36.473Z,0.00
2019-01-27T00:55:36.386Z,0.00
2019-01-27T00:56:36.306Z,0.00
2019-01-27T00:57:36.227Z,0.00
2019-01-27T00:58:36.134Z,0.00
2019-01-27T00:59:36.054Z,0.00
2019-01-27T01:00:35.963Z,0.00
2019-01-27T01:01:35.868Z,0.00
2019-01-27T01:02:35.787Z,0.00
2019-01-27T01:03:35.695Z,0.00
2019-01-27T01:04:35.609Z,0.00
2019-01-27T01:05:35.528Z,0.00
2019-01-27T01:06:35.456Z,0.00
2019-01-27T01:07:35.352Z,0.00
2019-01-27T01:08:35.266Z,0.00
2019-01-27T01:09:35.178Z,0.00
2019-01-27T01:10:35.091Z,0.00
2019-01-27T01:11:35.005Z,0.00
2019-01-27T01:12:34.931Z,0.00
2019-01-27T01:13:34.834Z,0.00
2019-01-27T01:14:34.745Z,0.00
2019-01-27T01:15:34.658Z,0.00
2019-01-27T01:16:34.573Z,0.00
2019-01-27T01:17:34.494Z,0.00
2019-01-27T01:18:34.402Z,0.00
2019-01-27T01:19:34.313Z,0.00
2019-01-27T01:20:34.228Z,0.00
2019-01-27T01:21:34.141Z,0.00
2019-01-27T01:22:34.056Z,0.00
2019-01-27T01:23:33.985Z,0.00
2019-01-27T01:24:33.887Z,0.00
2019-01-27T01:25:33.800Z,0.00
2019-01-27T01:26:33.710Z,0.00
2019-01-27T01:27:33.622Z,0.00
2019-01-27T01:28:33.539Z,0.00
2019-01-27T01:29:33.454Z,0.00
2019-01-27T01:30:33.371Z,0.00
2019-01-27T01:31:33.279Z,0.00
2019-01-27T01:32:33.194Z,0.00
2019-01-27T01:33:33.107Z,0.00
2019-01-27T01:34:33.019Z,0.00
2019-01-27T01:35:32.935Z,0.00
2019-01-27T01:36:32.850Z,0.00
2019-01-27T01:37:32.776Z,0.00
2019-01-27T01:38:32.675Z,0.00
2019-01-27T01:39:32.588Z,0.00
2019-01-27T01:40:32.504Z,0.00
2019-01-27T01:41:32.418Z,0.00
2019-01-27T01:42:32.340Z,0.00
2019-01-27T01:43:32.244Z,0.00
2019-01-27T01:44:32.158Z,0.00
2019-01-27T01:45:32.072Z,0.00
2019-01-27T01:46:31.987Z,0.00
2019-01-27T01:47:31.898Z,0.00
2019-01-27T01:48:31.815Z,0.00
2019-01-27T01:49:31.726Z,0.00
2019-01-27T01:50:31.649Z,0.00
2019-01-27T01:51:31.555Z,0.00
2019-01-27T01:52:31.500Z,0.00
2019-01-27T01:53:31.383Z,0.00
2019-01-27T01:54:31.308Z,0.00
2019-01-27T01:55:31.210Z,0.00
2019-01-27T01:56:31.126Z,0.00
2019-01-27T01:57:31.041Z,0.00
2019-01-27T01:58:30.950Z,0.00
2019-01-27T01:59:30.864Z,0.00
2019-01-27T02:00:30.779Z,0.00
2019-01-27T02:01:30.694Z,0.00
2019-01-27T02:02:30.606Z,0.00
2019-01-27T02:03:30.538Z,0.00
2019-01-27T02:04:30.433Z,0.00
2019-01-27T02:05:30.350Z,0.00
2019-01-27T02:06:30.266Z,0.00
2019-01-27T02:07:30.182Z,0.00
2019-01-27T02:08:30.088Z,0.00
2019-01-27T02:09:30.005Z,0.00
2019-01-27T02:10:29.916Z,0.00
2019-01-27T02:11:29.832Z,0.00
2019-01-27T02:12:29.751Z,0.00
2019-01-27T02:13:29.658Z,0.00
2019-01-27T02:14:29.575Z,0.00
2019-01-27T02:15:29.489Z,0.00
2019-01-27T02:16:29.426Z,0.00
2019-01-27T02:17:29.314Z,0.00
2019-01-27T02:18:29.227Z,0.00
2019-01-27T02:19:29.140Z,0.00
2019-01-27T02:20:29.056Z,0.00
2019-01-27T02:21:28.978Z,0.00
2019-01-27T02:22:28.881Z,0.00
2019-01-27T02:23:28.801Z,0.00
2019-01-27T02:24:28.710Z,0.00
2019-01-27T02:25:28.627Z,0.00
2019-01-27T02:26:28.542Z,0.00
2019-01-27T02:27:28.461Z,0.00
2019-01-27T02:28:28.368Z,0.00
2019-01-27T02:29:28.279Z,0.00
2019-01-27T02:30:28.196Z,0.00
2019-01-27T02:31:28.109Z,0.00
2019-01-27T02:32:28.023Z,0.00
2019-01-27T02:33:27.934Z,0.00
2019-01-27T02:34:27.849Z,0.00
2019-01-27T02:35:27.762Z,0.00
2019-01-27T02:36:27.676Z,0.00
2019-01-27T02:37:27.590Z,0.00
2019-01-27T02:38:27.507Z,0.00
2019-01-27T02:39:27.418Z,0.00
2019-01-27T02:40:27.336Z,0.00
2019-01-27T02:41:27.296Z,0.00
2019-01-27T02:42:27.165Z,0.00
2019-01-27T02:43:27.073Z,0.00
2019-01-27T02:44:26.986Z,0.00
2019-01-27T02:45:26.900Z,0.00
2019-01-27T02:46:26.814Z,0.00
2019-01-27T02:47:26.731Z,0.00
2019-01-27T02:48:26.643Z,0.00
2019-01-27T02:49:26.560Z,0.00
2019-01-27T02:50:26.473Z,0.00
2019-01-27T02:51:26.382Z,0.00
2019-01-27T02:52:26.301Z,0.00
2019-01-27T02:53:26.211Z,0.00
2019-01-27T02:54:26.123Z,0.00
2019-01-27T02:55:26.039Z,0.00
2019-01-27T02:56:25.952Z,0.00
2019-01-27T02:57:25.863Z,0.00
2019-01-27T02:58:25.776Z,0.00
2019-01-27T02:59:25.699Z,0.00
2019-01-27T03:00:25.606Z,0.00
2019-01-27T03:01:25.528Z,0.00
2019-01-27T03:02:25.433Z,0.00
2019-01-27T03:03:25.349Z,0.00
2019-01-27T03:04:25.267Z,0.00
2019-01-27T03:05:25.174Z,0.00
2019-01-27T03:06:25.087Z,0.00
2019-01-27T03:07:25.000Z,0.00
2019-01-27T03:08:24.914Z,0.00
2019-01-27T03:09:24.827Z,0.00
2019-01-27T03:10:24.740Z,0.00
2019-01-27T03:11:24.662Z,0.00
2019-01-27T03:12:24.579Z,0.00
2019-01-27T03:13:24.482Z,0.00
2019-01-27T03:14:24.395Z,0.00
2019-01-27T03:15:24.308Z,0.00
2019-01-27T03:16:24.220Z,0.00
2019-01-27T03:17:24.133Z,0.00
2019-01-27T03:18:24.046Z,0.00
2019-01-27T03:19:23.977Z,0.00
2019-01-27T03:20:23.873Z,0.00
2019-01-27T03:21:23.786Z,0.00
2019-01-27T03:22:23.700Z,0.00
2019-01-27T03:23:23.611Z,0.00
2019-01-27T03:24:23.526Z,0.00
2019-01-27T03:25:23.444Z,0.00
2019-01-27T03:26:23.352Z,0.00
2019-01-27T03:27:23.263Z,0.00
2019-01-27T03:28:23.181Z,0.00
2019-01-27T03:29:23.098Z,0.00
2019-01-27T03:30:23.013Z,0.00
2019-01-27T03:31:22.931Z,0.00
2019-01-27T03:32:22.845Z,0.00
2019-01-27T03:33:22.747Z,0.00
2019-01-27T03:34:22.662Z,0.00
2019-01-27T03:35:22.574Z,0.00
2019-01-27T03:36:22.483Z,0.00
2019-01-27T03:37:22.399Z,0.00
2019-01-27T03:38:22.318Z,0.00
2019-01-27T03:39:22.232Z,0.00
2019-01-27T03:40:22.139Z,0.00
2019-01-27T03:41:22.051Z,0.00
2019-01-27T03:42:21.964Z,0.00
2019-01-27T03:43:21.877Z,0.00
2019-01-27T03:44:21.790Z,0.00
2019-01-27T03:45:21.704Z,0.00
2019-01-27T03:46:21.619Z,0.00
2019-01-27T03:47:21.532Z,0.00
2019-01-27T03:48:21.444Z,0.00
2019-01-27T03:49:21.357Z,0.00
2019-01-27T03:50:21.272Z,0.00
2019-01-27T03:51:21.196Z,0.00
2019-01-27T03:52:21.095Z,0.00
2019-01-27T03:53:21.017Z,0.00
2019-01-27T03:54:20.924Z,0.00
2019-01-27T03:55:20.851Z,0.00
2019-01-27T03:56:20.750Z,0.00
2019-01-27T03:57:20.667Z,0.00
2019-01-27T03:58:20.574Z,0.00
2019-01-27T03:59:20.508Z,0.00
2019-01-27T04:00:20.400Z,0.00
2019-01-27T04:01:20.313Z,0.00
2019-01-27T04:02:20.229Z,0.00
2019-01-27T04:03:20.162Z,0.00
2019-01-27T04:04:20.055Z,0.00
2019-01-27T04:05:19.967Z,0.00
2019-01-27T04:06:19.881Z,0.00
2019-01-27T04:07:19.794Z,0.00
2019-01-27T04:08:19.705Z,0.00
2019-01-27T04:09:19.622Z,0.00
2019-01-27T04:10:19.533Z,0.00
2019-01-27T04:11:19.444Z,0.00
2019-01-27T04:12:19.361Z,0.00
2019-01-27T04:13:19.270Z,0.00
2019-01-27T04:14:19.186Z,0.00
2019-01-27T04:15:19.096Z,0.00
2019-01-27T04:16:19.011Z,0.00
2019-01-27T04:17:18.922Z,0.00
2019-01-27T04:18:18.841Z,0.00
2019-01-27T04:19:18.748Z,0.00
2019-01-27T04:20:18.662Z,0.00
2019-01-27T04:21:18.577Z,0.00
2019-01-27T04:22:18.488Z,0.00
2019-01-27T04:23:18.401Z,0.00
2019-01-27T04:24:18.317Z,0.00
2019-01-27T04:25:18.230Z,0.00
2019-01-27T04:26:18.141Z,0.00
2019-01-27T04:27:18.051Z,0.00
2019-01-27T04:28:18.016Z,0.00
2019-01-27T04:29:17.878Z,0.00
2019-01-27T04:30:17.791Z,0.00
2019-01-27T04:31:17.719Z,0.00
2019-01-27T04:32:17.615Z,0.00
2019-01-27T04:33:17.532Z,0.00
2019-01-27T04:34:17.442Z,0.00
2019-01-27T04:35:17.356Z,0.00
2019-01-27T04:36:17.268Z,0.00
2019-01-27T04:37:17.180Z,0.00
2019-01-27T04:38:17.098Z,0.00
2019-01-27T04:39:17.006Z,0.00
2019-01-27T04:40:16.928Z,0.00
2019-01-27T04:41:16.834Z,0.00
2019-01-27T04:42:16.746Z,0.00
2019-01-27T04:43:16.688Z,0.00
2019-01-27T04:44:16.579Z,0.00
2019-01-27T04:45:16.485Z,0.00
2019-01-27T04:46:16.409Z,0.00
2019-01-27T04:47:16.311Z,0.00
2019-01-27T04:48:16.223Z,0.00
2019-01-27T04:49:16.135Z,0.00
2019-01-27T04:50:16.050Z,0.00
2019-01-27T04:51:15.960Z,0.00
2019-01-27T04:52:15.876Z,0.00
2019-01-27T04:53:15.785Z,0.00
2019-01-27T04:54:15.700Z,0.00
2019-01-27T04:55:15.610Z,0.00
2019-01-27T04:56:15.523Z,0.00
2019-01-27T04:57:15.447Z,0.00
2019-01-27T04:58:15.350Z,0.00
2019-01-27T04:59:15.264Z,0.00
2019-01-27T05:00:15.174Z,0.00
2019-01-27T05:01:15.087Z,0.00
2019-01-27T05:02:14.999Z,0.00
2019-01-27T05:03:14.911Z,0.00
2019-01-27T05:04:16.390Z,0.00
2019-01-27T05:05:14.739Z,0.00
2019-01-27T05:06:14.656Z,0.00
2019-01-27T05:07:14.566Z,0.00
2019-01-27T05:08:14.477Z,0.00
2019-01-27T05:09:14.391Z,0.00
2019-01-27T05:10:14.302Z,0.00
2019-01-27T05:11:14.217Z,0.00
2019-01-27T05:12:14.128Z,0.00
2019-01-27T05:13:14.049Z,0.00
2019-01-27T05:14:13.958Z,0.00
2019-01-27T05:15:13.868Z,0.00
2019-01-27T05:16:13.779Z,0.00
2019-01-27T05:17:13.692Z,0.00
2019-01-27T05:18:13.603Z,0.00
2019-01-27T05:19:13.516Z,0.00
2019-01-27T05:20:13.429Z,0.00
2019-01-27T05:21:13.343Z,0.00
2019-01-27T05:22:13.254Z,0.00
2019-01-27T05:23:13.170Z,0.00
2019-01-27T05:24:13.079Z,0.00
2019-01-27T05:25:12.992Z,0.00
2019-01-27T05:26:12.914Z,0.00
2019-01-27T05:27:12.817Z,0.00
2019-01-27T05:28:12.733Z,0.00
2019-01-27T05:29:12.649Z,0.00
2019-01-27T05:30:12.556Z,0.00
2019-01-27T05:31:12.471Z,0.00
2019-01-27T05:32:12.382Z,0.00
2019-01-27T05:33:12.298Z,0.00
2019-01-27T05:34:12.210Z,0.00
2019-01-27T05:35:12.121Z,0.00
2019-01-27T05:36:12.033Z,0.00
2019-01-27T05:37:11.948Z,0.00
2019-01-27T05:38:11.857Z,0.00
2019-01-27T05:39:11.785Z,0.00
2019-01-27T05:40:11.715Z,0.00
2019-01-27T05:41:11.598Z,0.00
2019-01-27T05:42:11.508Z,0.00
2019-01-27T05:43:11.426Z,0.00
2019-01-27T05:44:11.337Z,0.00
2019-01-27T05:45:11.247Z,0.00
2019-01-27T05:46:11.161Z,0.00
2019-01-27T05:47:11.074Z,0.00
2019-01-27T05:48:10.987Z,0.00
2019-01-27T05:49:10.900Z,0.00
2019-01-27T05:50:10.813Z,0.00
2019-01-27T05:51:10.724Z,0.00
2019-01-27T05:52:10.644Z,0.00
2019-01-27T05:53:10.559Z,0.00
2019-01-27T05:54:10.463Z,0.00
2019-01-27T05:55:10.374Z,0.00
2019-01-27T05:56:10.292Z,0.00
2019-01-27T05:57:10.201Z,0.00
2019-01-27T05:58:10.114Z,0.00
2019-01-27T05:59:10.030Z,0.00
2019-01-27T06:00:09.953Z,0.00
2019-01-27T06:01:09.854Z,0.00
2019-01-27T06:02:09.762Z,0.00
2019-01-27T06:03:09.690Z,0.00
2019-01-27T06:04:09.592Z,0.00
2019-01-27T06:05:09.503Z,0.00
2019-01-27T06:06:09.418Z,0.00
2019-01-27T06:07:09.328Z,0.00
2019-01-27T06:08:09.241Z,0.00
2019-01-27T06:09:09.155Z,0.00
2019-01-27T06:10:09.069Z,0.00
2019-01-27T06:11:08.981Z,0.00
2019-01-27T06:12:08.894Z,0.00
2019-01-27T06:13:08.810Z,0.00
2019-01-27T06:14:08.729Z,0.00
2019-01-27T06:15:08.634Z,0.00
2019-01-27T06:16:08.546Z,0.00
2019-01-27T06:17:08.459Z,0.00
2019-01-27T06:18:08.368Z,0.00
2019-01-27T06:19:08.293Z,0.00
2019-01-27T06:20:08.196Z,0.00
2019-01-27T06:21:08.113Z,0.00
2019-01-27T06:22:08.022Z,0.00
2019-01-27T06:23:07.935Z,0.00
2019-01-27T06:24:07.847Z,0.00
2019-01-27T06:25:07.762Z,0.00
2019-01-27T06:26:07.680Z,4.00
2019-01-27T06:27:07.601Z,4.00
2019-01-27T06:28:07.532Z,0.00
2019-01-27T06:29:07.417Z,4.00
2019-01-27T06:30:07.322Z,4.00
2019-01-27T06:31:07.237Z,4.00
2019-01-27T06:32:07.149Z,8.00
2019-01-27T06:33:07.062Z,8.00
2019-01-27T06:34:06.976Z,12.00
2019-01-27T06:35:06.905Z,8.00
2019-01-27T06:36:06.809Z,12.00
2019-01-27T06:37:06.712Z,12.00
2019-01-27T06:38:06.626Z,20.00
2019-01-27T06:39:06.538Z,20.00
2019-01-27T06:40:06.451Z,24.00
2019-01-27T06:41:06.364Z,24.00
2019-01-27T06:42:06.280Z,28.00
2019-01-27T06:43:06.206Z,36.00
2019-01-27T06:44:06.102Z,36.00
2019-01-27T06:45:06.014Z,40.00
2019-01-27T06:46:05.927Z,44.00
2019-01-27T06:47:05.845Z,44.00
2019-01-27T06:48:05.753Z,48.00
2019-01-27T06:49:05.668Z,56.00
2019-01-27T06:50:05.579Z,60.00
2019-01-27T06:51:05.494Z,68.00
2019-01-27T06:52:05.409Z,76.00
2019-01-27T06:53:05.316Z,84.00
2019-01-27T06:54:05.229Z,92.00
2019-01-27T06:55:05.143Z,100.00
2019-01-27T06:56:05.058Z,104.00
2019-01-27T06:57:04.969Z,112.00
2019-01-27T06:58:04.881Z,116.00
2019-01-27T06:59:04.794Z,124.00
2019-01-27T07:00:04.708Z,136.00
2019-01-27T07:01:04.619Z,148.00
2019-01-27T07:02:04.533Z,164.00
2019-01-27T07:03:04.459Z,180.00
2019-01-27T07:04:04.363Z,192.00
2019-01-27T07:05:04.272Z,200.00
2019-01-27T07:06:04.189Z,204.00
2019-01-27T07:07:04.097Z,212.00
2019-01-27T07:08:04.010Z,216.00
2019-01-27T07:09:05.133Z,224.00
2019-01-27T07:10:03.837Z,232.00
2019-01-27T07:11:03.749Z,244.00
2019-01-27T07:12:03.665Z,248.00
2019-01-27T07:13:03.576Z,244.00
2019-01-27T07:14:03.488Z,248.00
2019-01-27T07:15:03.404Z,248.00
2019-01-27T07:16:03.311Z,252.00
2019-01-27T07:17:03.225Z,260.00
2019-01-27T07:18:03.141Z,272.00
2019-01-27T07:19:03.051Z,288.00
2019-01-27T07:20:02.963Z,300.00
2019-01-27T07:21:02.881Z,320.00
2019-01-27T07:22:02.791Z,336.00
2019-01-27T07:23:02.704Z,336.00
2019-01-27T07:24:02.626Z,344.00
2019-01-27T07:25:02.529Z,348.00
2019-01-27T07:26:02.444Z,352.00
2019-01-27T07:27:02.354Z,356.00
2019-01-27T07:28:02.286Z,368.00
2019-01-27T07:29:02.188Z,384.00
2019-01-27T07:30:02.093Z,400.00
2019-01-27T07:31:02.009Z,416.00
2019-01-27T07:32:01.925Z,420.00
2019-01-27T07:33:01.832Z,428.00
2019-01-27T07:34:01.744Z,444.00
2019-01-27T07:35:01.662Z,452.00
2019-01-27T07:36:01.574Z,460.00
2019-01-27T07:37:01.487Z,464.00
2019-01-27T07:38:01.397Z,460.00
2019-01-27T07:39:01.315Z,468.00
2019-01-27T07:40:01.224Z,520.00
2019-01-27T07:41:01.138Z,572.00
2019-01-27T07:42:01.048Z,628.00
2019-01-27T07:43:00.965Z,612.00
2019-01-27T07:44:00.878Z,572.00
2019-01-27T07:45:00.816Z,532.00
2019-01-27T07:46:00.699Z,540.00
2019-01-27T07:47:00.614Z,564.00
2019-01-27T07:48:00.531Z,588.00
2019-01-27T07:49:00.441Z,628.00
2019-01-27T07:50:00.355Z,660.00
2019-01-27T07:51:00.273Z,700.00
2019-01-27T07:52:00.181Z,680.00
2019-01-27T07:53:00.098Z,736.00
2019-01-27T07:54:00.004Z,884.00
2019-01-27T07:54:59.918Z,856.00
2019-01-27T07:55:59.829Z,824.00
2019-01-27T07:56:59.743Z,888.00
2019-01-27T07:57:59.658Z,1072.00
2019-01-27T07:58:59.570Z,1128.00
2019-01-27T07:59:59.487Z,1096.00
2019-01-27T08:00:59.401Z,1096.00
2019-01-27T08:01:59.316Z,1124.00
2019-01-27T08:02:59.225Z,1308.00
2019-01-27T08:03:59.143Z,1460.00
2019-01-27T08:04:59.054Z,1560.00
2019-01-27T08:05:58.974Z,1584.00
2019-01-27T08:06:58.876Z,1616.00
2019-01-27T08:07:58.791Z,1756.00
2019-01-27T08:08:58.703Z,1956.00
2019-01-27T08:09:58.614Z,2040.00
2019-01-27T08:10:58.527Z,2064.00
2019-01-27T08:11:58.445Z,2176.00
2019-01-27T08:12:58.355Z,2212.00
2019-01-27T08:13:58.282Z,2320.00
2019-01-27T08:14:58.184Z,2204.00
2019-01-27T08:15:58.102Z,2352.00
2019-01-27T08:16:58.011Z,2452.00
2019-01-27T08:17:57.924Z,2268.00
2019-01-27T08:18:57.840Z,2084.00
2019-01-27T08:19:57.751Z,1908.00
2019-01-27T08:20:57.661Z,1688.00
2019-01-27T08:21:57.574Z,1668.00
2019-01-27T08:22:57.488Z,1696.00
2019-01-27T08:23:57.407Z,1772.00
2019-01-27T08:24:57.330Z,1952.00
2019-01-27T08:25:57.229Z,2092.00
2019-01-27T08:26:57.141Z,2188.00
2019-01-27T08:27:57.056Z,2152.00
2019-01-27T08:28:56.989Z,2024.00
2019-01-27T08:29:56.882Z,2032.00
2019-01-27T08:30:56.805Z,1984.00
2019-01-27T08:31:56.711Z,1936.00
2019-01-27T08:32:56.624Z,1856.00
2019-01-27T08:33:56.538Z,1772.00
2019-01-27T08:34:56.452Z,1692.00
2019-01-27T08:35:56.364Z,1688.00
2019-01-27T08:36:56.280Z,1732.00
2019-01-27T08:37:56.193Z,1764.00
2019-01-27T08:38:56.106Z,1784.00
2019-01-27T08:39:56.020Z,1804.00
2019-01-27T08:40:55.936Z,1804.00
2019-01-27T08:41:55.846Z,1692.00
2019-01-27T08:42:55.761Z,1380.00
2019-01-27T08:43:55.677Z,1156.00
2019-01-27T08:44:55.588Z,1144.00
2019-01-27T08:45:55.504Z,1308.00
2019-01-27T08:46:55.418Z,1256.00
2019-01-27T08:47:55.332Z,1088.00
2019-01-27T08:48:55.259Z,1004.00
2019-01-27T08:49:55.165Z,936.00
2019-01-27T08:50:55.070Z,908.00
2019-01-27T08:51:54.987Z,952.00
2019-01-27T08:52:54.900Z,948.00
2019-01-27T08:53:54.812Z,1008.00
2019-01-27T08:54:54.726Z,1076.00
2019-01-27T08:55:54.640Z,1076.00
2019-01-27T08:56:54.554Z,1020.00
2019-01-27T08:57:54.473Z,968.00
2019-01-27T08:58:54.388Z,920.00
2019-01-27T08:59:54.294Z,900.00
2019-01-27T09:00:54.212Z,940.00
2019-01-27T09:01:54.122Z,988.00
2019-01-27T09:02:54.042Z,1028.00
2019-01-27T09:03:53.967Z,1028.00
2019-01-27T09:04:53.862Z,1000.00
2019-01-27T09:05:53.778Z,968.00
2019-01-27T09:06:53.689Z,968.00
2019-01-27T09:07:53.607Z,916.00
2019-01-27T09:08:54.720Z,908.00
2019-01-27T09:09:53.432Z,968.00
2019-01-27T09:10:53.347Z,1020.00
2019-01-27T09:11:53.263Z,1092.00
2019-01-27T09:12:53.174Z,1132.00
2019-01-27T09:13:53.091Z,1144.00
2019-01-27T09:14:53.000Z,1160.00
2019-01-27T09:15:52.916Z,1212.00
2019-01-27T09:16:52.852Z,1300.00
2019-01-27T09:17:52.741Z,1408.00
2019-01-27T09:18:52.655Z,1524.00
2019-01-27T09:19:52.567Z,1608.00
2019-01-27T09:20:52.487Z,1616.00
2019-01-27T09:21:52.396Z,1584.00
2019-01-27T09:22:52.311Z,1576.00
2019-01-27T09:23:52.224Z,1560.00
2019-01-27T09:24:52.156Z,1548.00
2019-01-27T09:25:52.051Z,1464.00
2019-01-27T09:26:51.965Z,1344.00
2019-01-27T09:27:51.884Z,1236.00
2019-01-27T09:28:51.804Z,1164.00
2019-01-27T09:29:51.705Z,1132.00
2019-01-27T09:30:51.619Z,1020.00
2019-01-27T09:31:51.540Z,932.00
2019-01-27T09:32:52.954Z,976.00
2019-01-27T09:33:51.361Z,1004.00
2019-01-27T09:34:51.276Z,1044.00
2019-01-27T09:35:51.189Z,1088.00
2019-01-27T09:36:51.102Z,1224.00
2019-01-27T09:37:51.020Z,1272.00
2019-01-27T09:38:50.930Z,1228.00
2019-01-27T09:39:50.855Z,1256.00
2019-01-27T09:40:50.763Z,1236.00
2019-01-27T09:41:50.674Z,1228.00
2019-01-27T09:42:50.590Z,1280.00
2019-01-27T09:43:50.500Z,1336.00
2019-01-27T09:44:50.457Z,1348.00
2019-01-27T09:46:05.095Z,1332.00
2019-01-27T09:46:50.244Z,1336.00
2019-01-27T09:47:50.160Z,1328.00
2019-01-27T09:48:50.071Z,1376.00
2019-01-27T09:49:49.983Z,1436.00
2019-01-27T09:50:49.897Z,1440.00
2019-01-27T09:51:49.818Z,1512.00
2019-01-27T09:52:49.724Z,1464.00
2019-01-27T09:53:49.638Z,1576.00
2019-01-27T09:54:49.554Z,1664.00
2019-01-27T09:55:49.468Z,1676.00
2019-01-27T09:56:49.382Z,1580.00
2019-01-27T09:57:49.292Z,1400.00
2019-01-27T09:58:49.207Z,1252.00
2019-01-27T09:59:49.122Z,1252.00
2019-01-27T10:00:49.064Z,1308.00
2019-01-27T10:01:48.992Z,1356.00
2019-01-27T10:02:48.860Z,1236.00
2019-01-27T10:03:48.778Z,1124.00
2019-01-27T10:04:48.695Z,928.00
2019-01-27T10:05:48.602Z,816.00
2019-01-27T10:06:48.519Z,740.00
2019-01-27T10:07:48.434Z,704.00
2019-01-27T10:08:48.347Z,696.00
2019-01-27T10:09:48.261Z,712.00
2019-01-27T10:10:48.175Z,736.00
2019-01-27T10:11:48.089Z,708.00
2019-01-27T10:12:48.008Z,708.00
2019-01-27T10:13:47.923Z,720.00
2019-01-27T10:14:47.831Z,808.00
2019-01-27T10:15:47.743Z,828.00
2019-01-27T10:16:47.657Z,964.00
2019-01-27T10:17:47.569Z,1012.00
2019-01-27T10:18:47.486Z,1040.00
2019-01-27T10:19:47.399Z,1104.00
2019-01-27T10:20:47.313Z,1188.00
2019-01-27T10:21:47.256Z,1244.00
2019-01-27T10:22:47.149Z,1320.00
2019-01-27T10:23:47.055Z,1460.00
2019-01-27T10:24:46.972Z,1512.00
2019-01-27T10:25:46.953Z,1528.00
2019-01-27T10:26:46.810Z,1584.00
2019-01-27T10:27:46.721Z,1632.00
2019-01-27T10:28:46.658Z,1664.00
2019-01-27T10:29:46.542Z,1672.00
2019-01-27T10:30:46.454Z,1660.00
2019-01-27T10:31:46.371Z,1600.00
2019-01-27T10:32:46.282Z,1528.00
2019-01-27T10:33:53.113Z,1452.00
2019-01-27T10:34:46.110Z,1384.00
2019-01-27T10:35:46.023Z,1328.00
2019-01-27T10:36:45.952Z,1324.00
2019-01-27T10:37:45.852Z,1364.00
2019-01-27T10:38:45.771Z,1412.00
2019-01-27T10:39:45.683Z,1464.00
2019-01-27T10:40:45.605Z,1564.00
2019-01-27T10:41:45.507Z,1688.00
2019-01-27T10:42:45.699Z,1856.00
2019-01-27T10:43:45.336Z,2048.00
2019-01-27T10:44:45.258Z,2216.00
2019-01-27T10:45:45.163Z,2232.00
2019-01-27T10:46:45.079Z,2188.00
2019-01-27T10:47:44.992Z,2184.00
2019-01-27T10:48:44.944Z,2244.00
2019-01-27T10:49:44.822Z,2328.00
2019-01-27T10:50:44.734Z,2356.00
2019-01-27T10:51:44.655Z,2280.00
2019-01-27T10:52:44.749Z,2148.00
2019-01-27T10:53:44.478Z,2044.00
2019-01-27T10:54:44.392Z,2020.00
2019-01-27T10:55:44.307Z,2036.00
2019-01-27T10:56:44.223Z,2040.00
2019-01-27T10:57:44.138Z,2028.00
2019-01-27T10:58:44.051Z,1976.00
2019-01-27T10:59:43.964Z,1932.00
2019-01-27T11:00:43.883Z,1904.00
2019-01-27T11:01:43.792Z,1804.00
2019-01-27T11:02:43.710Z,1628.00
2019-01-27T11:03:43.621Z,1452.00
2019-01-27T11:04:43.552Z,1356.00
2019-01-27T11:05:43.451Z,1332.00
2019-01-27T11:06:43.368Z,1372.00
2019-01-27T11:07:43.278Z,1460.00
2019-01-27T11:08:43.280Z,1552.00
2019-01-27T11:09:43.109Z,1680.00
2019-01-27T11:10:43.024Z,1784.00
2019-01-27T11:11:42.944Z,1928.00
2019-01-27T11:12:42.852Z,2180.00
2019-01-27T11:13:42.776Z,2444.00
2019-01-27T11:14:42.679Z,2688.00
2019-01-27T11:15:42.594Z,2928.00
2019-01-27T11:16:42.507Z,3132.00
2019-01-27T11:17:42.423Z,3312.00
2019-01-27T11:18:42.336Z,3512.00
2019-01-27T11:19:42.253Z,3548.00
2019-01-27T11:20:42.167Z,3828.00
2019-01-27T11:21:42.083Z,4364.00
2019-01-27T11:22:42.009Z,4588.00
2019-01-27T11:23:41.929Z,4124.00
2019-01-27T11:24:41.827Z,3636.00
2019-01-27T11:25:41.791Z,3536.00
2019-01-27T11:26:41.653Z,3548.00
2019-01-27T11:27:41.569Z,3472.00
2019-01-27T11:28:41.515Z,3548.00
2019-01-27T11:29:41.399Z,3620.00
2019-01-27T11:30:41.317Z,3592.00
2019-01-27T11:31:41.229Z,3604.00
2019-01-27T11:32:41.143Z,3308.00
2019-01-27T11:33:41.057Z,2976.00
2019-01-27T11:34:40.974Z,2688.00
2019-01-27T11:35:40.887Z,2472.00
2019-01-27T11:36:40.813Z,2488.00
2019-01-27T11:37:40.720Z,2568.00
2019-01-27T11:38:40.631Z,2580.00
2019-01-27T11:39:40.549Z,2568.00
2019-01-27T11:40:40.522Z,2588.00
2019-01-27T11:41:40.381Z,2628.00
2019-01-27T11:42:40.294Z,2560.00
2019-01-27T11:43:40.206Z,2376.00
2019-01-27T11:44:40.121Z,2312.00
2019-01-27T11:45:40.038Z,2440.00
2019-01-27T11:46:39.950Z,2724.00
2019-01-27T11:47:39.866Z,3280.00
2019-01-27T11:48:39.798Z,4012.00
2019-01-27T11:49:39.696Z,4624.00
2019-01-27T11:50:39.610Z,4516.00
2019-01-27T11:51:39.534Z,4140.00
2019-01-27T11:52:39.441Z,3796.00
2019-01-27T11:53:39.354Z,3468.00
2019-01-27T11:54:39.272Z,3328.00
2019-01-27T11:55:39.185Z,3000.00
2019-01-27T11:56:39.130Z,2924.00
2019-01-27T11:57:39.024Z,3016.00
2019-01-27T11:58:38.932Z,2976.00
2019-01-27T11:59:38.849Z,3044.00
2019-01-27T12:00:39.381Z,3036.00
2019-01-27T12:01:38.676Z,2800.00
2019-01-27T12:02:38.594Z,2852.00
2019-01-27T12:03:38.513Z,3372.00
2019-01-27T12:04:38.424Z,3968.00
2019-01-27T12:05:38.337Z,4444.00
2019-01-27T12:06:38.260Z,4964.00
2019-01-27T12:07:38.169Z,5280.00
2019-01-27T12:08:38.086Z,4944.00
2019-01-27T12:09:37.999Z,4708.00
2019-01-27T12:10:37.917Z,5524.00
2019-01-27T12:11:37.835Z,6364.00
2019-01-27T12:12:37.751Z,6352.00
2019-01-27T12:13:37.663Z,6072.00
2019-01-27T12:14:37.591Z,6224.00
2019-01-27T12:15:37.564Z,6864.00
2019-01-27T12:16:37.417Z,7592.00
2019-01-27T12:17:37.326Z,7964.00
2019-01-27T12:18:37.247Z,8732.00
2019-01-27T12:19:40.311Z,8168.00
2019-01-27T12:20:37.129Z,7416.00
2019-01-27T12:21:36.991Z,6588.00
2019-01-27T12:22:36.908Z,6228.00
2019-01-27T12:23:36.822Z,6748.00
2019-01-27T12:24:36.741Z,7760.00
2019-01-27T12:25:36.655Z,9572.00
2019-01-27T12:26:36.572Z,9108.00
2019-01-27T12:27:36.576Z,7712.00
2019-01-27T12:28:36.408Z,7712.00
2019-01-27T12:29:36.330Z,7060.00
2019-01-27T12:30:36.291Z,6228.00
2019-01-27T12:31:36.158Z,5896.00
2019-01-27T12:32:36.073Z,5372.00
2019-01-27T12:33:35.990Z,5496.00
2019-01-27T12:34:35.925Z,6120.00
2019-01-27T12:35:35.823Z,6708.00
2019-01-27T12:36:35.741Z,6592.00
2019-01-27T12:37:35.656Z,6808.00
2019-01-27T12:38:35.572Z,6664.00
2019-01-27T12:39:35.491Z,5600.00
2019-01-27T12:40:35.408Z,4628.00
2019-01-27T12:41:35.325Z,4040.00
2019-01-27T12:42:35.240Z,3916.00
2019-01-27T12:43:35.157Z,4056.00
2019-01-27T12:44:35.074Z,4224.00